Flight Track Log - Related Links

Times and Time Zones

All times are in EDT time to prevent confusion due to time zone crossing. See the AAH1103 flight status page for this flight to view local times or setup timezone preferences in your user account.

Time Position Orientation Groundspeed Altitude Reporting Facility
EDT Latitude Longitude Course Direction KTS MPH feet Rate Location/Type
Mon 11:20:59 PM 21.3167 -157.9000 163° South 170 196 900  Level Honolulu Center
Mon 11:21:59 PM 21.2667 -157.8833 163° South 170 196 3,100 1,750 Climbing Honolulu Center
Mon 11:22:59 PM 21.2167 -157.9000 197° South 200 230 4,400 1,400 Climbing Honolulu Center
Mon 11:23:59 PM 21.2000 -157.9667 255° West 180 207 5,900 1,438 Climbing Honolulu Center
Mon 11:25:00 PM 21.2000 -158.0167 270° West 180 207 7,300 1,190 Climbing Honolulu Center
Mon 11:26:00 PM 21.2000 -158.0667 270° West 210 242 8,300 950 Climbing Honolulu Center
Mon 11:27:00 PM 21.2167 -158.1167 290° West 200 230 9,200 850 Climbing Honolulu Center
Mon 11:28:00 PM 21.2500 -158.1667 306° West 200 230 10,000 400 Climbing Honolulu Center
Mon 11:29:00 PM 21.2833 -158.2333 298° West 220 253 10,000  Level Honolulu Center
Mon 11:30:00 PM 21.3000 -158.2833 290° West 230 265 10,000  Level Honolulu Center
Mon 11:31:00 PM 21.3333 -158.3500 298° West 240 276 10,000  Level Honolulu Center
Mon 11:32:00 PM 21.3667 -158.4167 298° West 240 276 10,000  Level Honolulu Center
Mon 11:33:00 PM 21.3833 -158.4833 285° West 230 265 10,000  Level Honolulu Center
Mon 11:34:01 PM 21.4167 -158.5500 298° West 240 276 10,000  Level Honolulu Center
Mon 11:35:01 PM 21.4500 -158.6000 306° West 240 276 10,000  Level Honolulu Center
Mon 11:36:01 PM 21.4667 -158.6667 285° West 240 276 10,000 -150 Level Honolulu Center
Mon 11:37:01 PM 21.5000 -158.7333 298° West 240 276 9,700 -700 Descending Honolulu Center
Mon 11:38:01 PM 21.5333 -158.8000 298° West 270 311 8,600 -1,150 Descending Honolulu Center
Mon 11:39:01 PM 21.5667 -158.8833 293° West 260 299 7,400 -1,150 Descending Honolulu Center
Mon 11:40:01 PM 21.6000 -158.9500 298° West 250 288 6,300 -1,140 Descending Honolulu Center
Mon 11:41:02 PM 21.6333 -159.0167 298° West 240 276 5,100 -1,150 Descending Honolulu Center
Mon 11:42:01 PM 21.6500 -159.0667 290° West 240 276 4,000 -1,150 Descending Honolulu Center
Mon 11:43:02 PM 21.7000 -159.1333 309° West 250 288 2,800 -1,041 Descending Honolulu Center
Mon 11:44:02 PM 21.7500 -159.1833 317° Northwest 240 276 1,900 -650 Descending Honolulu Center
Mon 11:45:02 PM 21.8000 -159.2333 317° Northwest 230 265 1,500 -200 Descending Honolulu Center
Mon 11:46:02 PM 21.8500 -159.2833 317° Northwest 220 253 1,500 -50 Level Honolulu Center
Mon 11:47:02 PM 21.8833 -159.3000 335° Northwest 140 161 1,400 -250 Descending Honolulu Center
Mon 11:48:02 PM 21.9000 -159.3333 298° West 100 115 1,000 -450 Descending Honolulu Center
Mon 11:49:02 PM 21.9333 -159.3333 360° North 120 138 500 -500 Descending Honolulu Center

Login

Don't have an account? Register now (free) for customized features, flight alerts, and more!